sensor_id;sensor_type;location;lat;lon;timestamp;P1;durP1;ratioP1;P2;durP2;ratioP2
15256;SDS011;7731;50.720;6.912;2023-09-12T00:01:40;11.65;;;10.45;;
15256;SDS011;7731;50.720;6.912;2023-09-12T00:04:10;13.88;;;10.60;;
15256;SDS011;7731;50.720;6.912;2023-09-12T00:06:43;10.63;;;9.50;;
15256;SDS011;7731;50.720;6.912;2023-09-12T00:09:13;10.20;;;9.23;;
15256;SDS011;7731;50.720;6.912;2023-09-12T00:11:44;10.38;;;9.27;;
15256;SDS011;7731;50.720;6.912;2023-09-12T00:14:17;9.40;;;8.32;;
15256;SDS011;7731;50.720;6.912;2023-09-12T00:16:48;10.52;;;8.60;;
15256;SDS011;7731;50.720;6.912;2023-09-12T00:19:22;12.82;;;8.07;;
15256;SDS011;7731;50.720;6.912;2023-09-12T00:21:55;11.57;;;8.18;;
15256;SDS011;7731;50.720;6.912;2023-09-12T00:24:25;8.70;;;7.18;;
15256;SDS011;7731;50.720;6.912;2023-09-12T00:26:55;9.75;;;7.65;;
15256;SDS011;7731;50.720;6.912;2023-09-12T00:29:27;9.50;;;7.40;;
15256;SDS011;7731;50.720;6.912;2023-09-12T00:32:01;10.00;;;7.13;;
15256;SDS011;7731;50.720;6.912;2023-09-12T00:34:31;7.45;;;6.45;;
15256;SDS011;7731;50.720;6.912;2023-09-12T00:37:04;9.55;;;7.25;;
15256;SDS011;7731;50.720;6.912;2023-09-12T00:39:35;8.65;;;6.40;;
15256;SDS011;7731;50.720;6.912;2023-09-12T00:42:05;8.05;;;6.72;;
15256;SDS011;7731;50.720;6.912;2023-09-12T00:44:38;7.88;;;6.68;;
15256;SDS011;7731;50.720;6.912;2023-09-12T00:47:09;8.35;;;7.50;;
15256;SDS011;7731;50.720;6.912;2023-09-12T00:49:41;7.57;;;6.55;;
15256;SDS011;7731;50.720;6.912;2023-09-12T00:52:24;9.13;;;7.85;;
15256;SDS011;7731;50.720;6.912;2023-09-12T00:54:57;9.77;;;7.70;;
15256;SDS011;7731;50.720;6.912;2023-09-12T00:57:28;8.93;;;8.00;;
15256;SDS011;7731;50.720;6.912;2023-09-12T01:00:02;9.88;;;7.28;;
15256;SDS011;7731;50.720;6.912;2023-09-12T01:02:39;8.48;;;7.55;;
15256;SDS011;7731;50.720;6.912;2023-09-12T01:05:12;7.82;;;6.80;;
15256;SDS011;7731;50.720;6.912;2023-09-12T01:07:47;8.38;;;7.25;;
15256;SDS011;7731;50.720;6.912;2023-09-12T01:10:17;8.75;;;7.88;;
15256;SDS011;7731;50.720;6.912;2023-09-12T01:12:48;8.55;;;7.40;;
15256;SDS011;7731;50.720;6.912;2023-09-12T01:15:19;8.25;;;7.40;;
15256;SDS011;7731;50.720;6.912;2023-09-12T01:17:49;8.68;;;7.10;;
15256;SDS011;7731;50.720;6.912;2023-09-12T01:20:22;11.05;;;7.78;;
15256;SDS011;7731;50.720;6.912;2023-09-12T01:23:10;10.13;;;7.55;;
15256;SDS011;7731;50.720;6.912;2023-09-12T01:26:11;12.00;;;8.10;;
15256;SDS011;7731;50.720;6.912;2023-09-12T01:29:01;8.32;;;7.30;;
15256;SDS011;7731;50.720;6.912;2023-09-12T01:31:36;11.82;;;7.20;;
15256;SDS011;7731;50.720;6.912;2023-09-12T01:34:08;8.88;;;7.80;;
15256;SDS011;7731;50.720;6.912;2023-09-12T01:36:40;8.60;;;7.70;;
15256;SDS011;7731;50.720;6.912;2023-09-12T01:39:13;11.18;;;7.75;;
15256;SDS011;7731;50.720;6.912;2023-09-12T01:41:43;8.00;;;7.28;;
15256;SDS011;7731;50.720;6.912;2023-09-12T01:44:21;8.02;;;7.18;;
15256;SDS011;7731;50.720;6.912;2023-09-12T01:46:57;8.50;;;7.00;;
15256;SDS011;7731;50.720;6.912;2023-09-12T01:49:34;8.82;;;7.95;;
15256;SDS011;7731;50.720;6.912;2023-09-12T01:52:08;9.40;;;7.10;;
15256;SDS011;7731;50.720;6.912;2023-09-12T01:54:40;9.27;;;7.85;;
15256;SDS011;7731;50.720;6.912;2023-09-12T01:57:11;12.45;;;7.63;;
15256;SDS011;7731;50.720;6.912;2023-09-12T01:59:46;8.43;;;7.53;;
15256;SDS011;7731;50.720;6.912;2023-09-12T02:02:17;8.07;;;7.22;;
15256;SDS011;7731;50.720;6.912;2023-09-12T02:04:51;8.48;;;7.53;;
15256;SDS011;7731;50.720;6.912;2023-09-12T02:07:45;10.10;;;7.28;;
15256;SDS011;7731;50.720;6.912;2023-09-12T02:10:16;10.32;;;7.75;;
15256;SDS011;7731;50.720;6.912;2023-09-12T02:12:46;9.25;;;7.32;;
15256;SDS011;7731;50.720;6.912;2023-09-12T02:15:19;8.05;;;7.35;;
15256;SDS011;7731;50.720;6.912;2023-09-12T02:17:50;8.73;;;7.53;;
15256;SDS011;7731;50.720;6.912;2023-09-12T02:20:21;9.38;;;8.48;;
15256;SDS011;7731;50.720;6.912;2023-09-12T02:22:51;9.10;;;8.10;;
15256;SDS011;7731;50.720;6.912;2023-09-12T02:25:22;8.57;;;7.60;;
15256;SDS011;7731;50.720;6.912;2023-09-12T02:27:52;10.23;;;8.60;;
15256;SDS011;7731;50.720;6.912;2023-09-12T02:30:25;9.57;;;8.35;;
15256;SDS011;7731;50.720;6.912;2023-09-12T02:32:55;11.05;;;8.93;;
15256;SDS011;7731;50.720;6.912;2023-09-12T02:35:27;11.07;;;8.38;;
15256;SDS011;7731;50.720;6.912;2023-09-12T02:37:57;10.38;;;9.35;;
15256;SDS011;7731;50.720;6.912;2023-09-12T02:40:28;10.55;;;9.55;;
15256;SDS011;7731;50.720;6.912;2023-09-12T02:42:58;10.32;;;9.23;;
15256;SDS011;7731;50.720;6.912;2023-09-12T02:45:31;11.85;;;9.73;;
15256;SDS011;7731;50.720;6.912;2023-09-12T02:48:01;10.98;;;9.35;;
15256;SDS011;7731;50.720;6.912;2023-09-12T02:50:33;10.48;;;9.50;;
15256;SDS011;7731;50.720;6.912;2023-09-12T02:53:03;10.18;;;9.18;;
15256;SDS011;7731;50.720;6.912;2023-09-12T02:55:33;11.35;;;10.20;;
15256;SDS011;7731;50.720;6.912;2023-09-12T02:58:10;11.18;;;10.00;;
15256;SDS011;7731;50.720;6.912;2023-09-12T03:00:42;10.50;;;9.38;;
15256;SDS011;7731;50.720;6.912;2023-09-12T03:03:17;12.85;;;11.65;;
15256;SDS011;7731;50.720;6.912;2023-09-12T03:05:47;10.82;;;9.40;;
15256;SDS011;7731;50.720;6.912;2023-09-12T03:08:28;10.98;;;9.45;;
15256;SDS011;7731;50.720;6.912;2023-09-12T03:10:58;11.82;;;10.60;;
15256;SDS011;7731;50.720;6.912;2023-09-12T03:13:29;11.48;;;10.23;;
15256;SDS011;7731;50.720;6.912;2023-09-12T03:16:02;11.57;;;10.38;;
15256;SDS011;7731;50.720;6.912;2023-09-12T03:18:33;13.10;;;9.88;;
15256;SDS011;7731;50.720;6.912;2023-09-12T03:21:03;11.98;;;9.90;;
15256;SDS011;7731;50.720;6.912;2023-09-12T03:23:34;11.30;;;9.80;;
15256;SDS011;7731;50.720;6.912;2023-09-12T03:26:05;11.63;;;9.95;;
15256;SDS011;7731;50.720;6.912;2023-09-12T03:28:36;12.95;;;9.63;;
15256;SDS011;7731;50.720;6.912;2023-09-12T03:31:11;14.35;;;9.80;;
15256;SDS011;7731;50.720;6.912;2023-09-12T03:33:43;15.63;;;11.30;;
15256;SDS011;7731;50.720;6.912;2023-09-12T03:36:17;16.05;;;11.88;;
15256;SDS011;7731;50.720;6.912;2023-09-12T03:38:47;13.98;;;10.98;;
15256;SDS011;7731;50.720;6.912;2023-09-12T03:41:20;17.40;;;12.05;;
15256;SDS011;7731;50.720;6.912;2023-09-12T03:43:52;13.85;;;12.10;;
15256;SDS011;7731;50.720;6.912;2023-09-12T03:46:26;14.65;;;11.88;;
15256;SDS011;7731;50.720;6.912;2023-09-12T03:48:56;16.38;;;12.15;;
15256;SDS011;7731;50.720;6.912;2023-09-12T03:51:35;13.38;;;11.98;;
15256;SDS011;7731;50.720;6.912;2023-09-12T03:54:08;13.40;;;12.02;;
15256;SDS011;7731;50.720;6.912;2023-09-12T03:56:38;14.90;;;12.38;;
15256;SDS011;7731;50.720;6.912;2023-09-12T03:59:11;15.90;;;13.27;;
15256;SDS011;7731;50.720;6.912;2023-09-12T04:01:44;15.75;;;13.32;;
15256;SDS011;7731;50.720;6.912;2023-09-12T04:04:15;17.73;;;13.98;;
15256;SDS011;7731;50.720;6.912;2023-09-12T04:06:45;16.48;;;14.77;;
15256;SDS011;7731;50.720;6.912;2023-09-12T04:09:16;18.45;;;15.50;;
15256;SDS011;7731;50.720;6.912;2023-09-12T04:11:46;18.60;;;15.15;;
15256;SDS011;7731;50.720;6.912;2023-09-12T04:14:16;17.80;;;14.80;;
15256;SDS011;7731;50.720;6.912;2023-09-12T04:16:49;19.02;;;14.80;;
15256;SDS011;7731;50.720;6.912;2023-09-12T04:19:20;20.23;;;15.45;;
15256;SDS011;7731;50.720;6.912;2023-09-12T04:21:50;19.38;;;15.20;;
15256;SDS011;7731;50.720;6.912;2023-09-12T04:24:20;21.40;;;15.57;;
15256;SDS011;7731;50.720;6.912;2023-09-12T04:26:51;21.48;;;15.70;;
15256;SDS011;7731;50.720;6.912;2023-09-12T04:29:21;17.88;;;15.43;;
15256;SDS011;7731;50.720;6.912;2023-09-12T04:31:54;17.50;;;15.10;;
15256;SDS011;7731;50.720;6.912;2023-09-12T04:34:26;23.90;;;16.98;;
15256;SDS011;7731;50.720;6.912;2023-09-12T04:36:56;20.33;;;17.33;;
15256;SDS011;7731;50.720;6.912;2023-09-12T04:39:30;22.17;;;16.92;;
15256;SDS011;7731;50.720;6.912;2023-09-12T04:42:01;22.25;;;17.83;;
15256;SDS011;7731;50.720;6.912;2023-09-12T04:44:34;18.55;;;16.58;;
15256;SDS011;7731;50.720;6.912;2023-09-12T04:47:07;17.20;;;15.48;;
15256;SDS011;7731;50.720;6.912;2023-09-12T04:49:38;23.00;;;15.98;;
15256;SDS011;7731;50.720;6.912;2023-09-12T04:52:09;19.67;;;15.60;;
15256;SDS011;7731;50.720;6.912;2023-09-12T04:54:39;17.80;;;15.85;;
15256;SDS011;7731;50.720;6.912;2023-09-12T04:57:10;18.70;;;16.05;;
15256;SDS011;7731;50.720;6.912;2023-09-12T04:59:40;18.65;;;16.80;;
15256;SDS011;7731;50.720;6.912;2023-09-12T05:02:13;19.15;;;16.92;;
15256;SDS011;7731;50.720;6.912;2023-09-12T05:04:43;19.08;;;16.65;;
15256;SDS011;7731;50.720;6.912;2023-09-12T05:07:14;18.83;;;16.23;;
15256;SDS011;7731;50.720;6.912;2023-09-12T05:09:45;19.77;;;17.70;;
15256;SDS011;7731;50.720;6.912;2023-09-12T05:12:15;20.08;;;18.05;;
15256;SDS011;7731;50.720;6.912;2023-09-12T05:14:45;19.13;;;17.17;;
15256;SDS011;7731;50.720;6.912;2023-09-12T05:17:18;20.30;;;18.00;;
15256;SDS011;7731;50.720;6.912;2023-09-12T05:19:49;19.05;;;17.08;;
15256;SDS011;7731;50.720;6.912;2023-09-12T05:22:19;19.08;;;17.08;;
15256;SDS011;7731;50.720;6.912;2023-09-12T05:24:50;22.52;;;18.58;;
15256;SDS011;7731;50.720;6.912;2023-09-12T05:27:20;27.42;;;17.70;;
15256;SDS011;7731;50.720;6.912;2023-09-12T05:29:50;19.50;;;17.50;;
15256;SDS011;7731;50.720;6.912;2023-09-12T05:32:23;19.30;;;17.27;;
15256;SDS011;7731;50.720;6.912;2023-09-12T05:34:54;21.30;;;18.08;;
15256;SDS011;7731;50.720;6.912;2023-09-12T05:37:44;23.95;;;20.33;;
15256;SDS011;7731;50.720;6.912;2023-09-12T05:40:14;25.27;;;17.48;;
15256;SDS011;7731;50.720;6.912;2023-09-12T05:42:45;20.88;;;18.42;;
15256;SDS011;7731;50.720;6.912;2023-09-12T05:45:15;20.60;;;18.48;;
15256;SDS011;7731;50.720;6.912;2023-09-12T05:47:49;23.70;;;20.02;;
15256;SDS011;7731;50.720;6.912;2023-09-12T05:50:19;22.23;;;19.40;;
15256;SDS011;7731;50.720;6.912;2023-09-12T05:52:50;21.65;;;19.38;;
15256;SDS011;7731;50.720;6.912;2023-09-12T05:55:20;21.75;;;19.45;;
15256;SDS011;7731;50.720;6.912;2023-09-12T05:57:51;22.45;;;20.17;;
15256;SDS011;7731;50.720;6.912;2023-09-12T06:00:21;23.45;;;20.95;;
15256;SDS011;7731;50.720;6.912;2023-09-12T06:02:56;21.85;;;19.48;;
15256;SDS011;7731;50.720;6.912;2023-09-12T06:05:27;25.30;;;19.80;;
15256;SDS011;7731;50.720;6.912;2023-09-12T06:07:59;20.35;;;17.63;;
15256;SDS011;7731;50.720;6.912;2023-09-12T06:10:31;20.20;;;18.20;;
15256;SDS011;7731;50.720;6.912;2023-09-12T06:13:01;21.08;;;18.95;;
15256;SDS011;7731;50.720;6.912;2023-09-12T06:15:32;23.77;;;19.63;;
15256;SDS011;7731;50.720;6.912;2023-09-12T06:18:05;24.60;;;19.50;;
15256;SDS011;7731;50.720;6.912;2023-09-12T06:20:36;22.13;;;18.25;;
15256;SDS011;7731;50.720;6.912;2023-09-12T06:23:07;20.30;;;17.75;;
15256;SDS011;7731;50.720;6.912;2023-09-12T06:25:38;22.80;;;19.05;;
15256;SDS011;7731;50.720;6.912;2023-09-12T06:28:08;20.70;;;18.23;;
15256;SDS011;7731;50.720;6.912;2023-09-12T06:30:39;19.98;;;17.33;;
15256;SDS011;7731;50.720;6.912;2023-09-12T06:33:12;20.45;;;18.33;;
15256;SDS011;7731;50.720;6.912;2023-09-12T06:35:43;20.48;;;17.23;;
15256;SDS011;7731;50.720;6.912;2023-09-12T06:38:13;20.88;;;18.10;;
15256;SDS011;7731;50.720;6.912;2023-09-12T06:40:44;16.90;;;14.00;;
15256;SDS011;7731;50.720;6.912;2023-09-12T06:43:14;18.35;;;15.32;;
15256;SDS011;7731;50.720;6.912;2023-09-12T06:45:44;17.50;;;13.40;;
15256;SDS011;7731;50.720;6.912;2023-09-12T06:48:18;17.88;;;14.98;;
15256;SDS011;7731;50.720;6.912;2023-09-12T06:50:48;16.52;;;13.73;;
15256;SDS011;7731;50.720;6.912;2023-09-12T06:53:19;18.05;;;13.82;;
15256;SDS011;7731;50.720;6.912;2023-09-12T06:55:52;16.42;;;13.55;;
15256;SDS011;7731;50.720;6.912;2023-09-12T06:58:23;16.42;;;13.07;;
15256;SDS011;7731;50.720;6.912;2023-09-12T07:00:54;16.40;;;12.38;;
15256;SDS011;7731;50.720;6.912;2023-09-12T07:03:27;15.57;;;11.85;;
15256;SDS011;7731;50.720;6.912;2023-09-12T07:05:58;15.23;;;11.82;;
15256;SDS011;7731;50.720;6.912;2023-09-12T07:08:29;14.48;;;10.88;;
15256;SDS011;7731;50.720;6.912;2023-09-12T07:11:00;15.00;;;10.63;;
15256;SDS011;7731;50.720;6.912;2023-09-12T07:13:33;16.30;;;12.02;;
15256;SDS011;7731;50.720;6.912;2023-09-12T07:16:04;14.50;;;11.32;;
15256;SDS011;7731;50.720;6.912;2023-09-12T07:18:37;11.80;;;9.45;;
15256;SDS011;7731;50.720;6.912;2023-09-12T07:21:07;8.80;;;7.93;;
15256;SDS011;7731;50.720;6.912;2023-09-12T07:23:39;10.40;;;9.13;;
15256;SDS011;7731;50.720;6.912;2023-09-12T07:26:12;9.98;;;7.55;;
15256;SDS011;7731;50.720;6.912;2023-09-12T07:28:43;10.38;;;8.13;;
15256;SDS011;7731;50.720;6.912;2023-09-12T07:31:14;10.18;;;8.32;;
15256;SDS011;7731;50.720;6.912;2023-09-12T07:33:47;9.80;;;8.05;;
15256;SDS011;7731;50.720;6.912;2023-09-12T07:36:17;8.48;;;7.20;;
15256;SDS011;7731;50.720;6.912;2023-09-12T07:38:48;8.18;;;7.38;;
15256;SDS011;7731;50.720;6.912;2023-09-12T07:41:18;7.20;;;6.47;;
15256;SDS011;7731;50.720;6.912;2023-09-12T07:43:48;9.77;;;6.75;;
15256;SDS011;7731;50.720;6.912;2023-09-12T07:46:19;9.70;;;7.18;;
15256;SDS011;7731;50.720;6.912;2023-09-12T07:48:52;10.43;;;7.85;;
15256;SDS011;7731;50.720;6.912;2023-09-12T07:51:22;12.13;;;8.05;;
15256;SDS011;7731;50.720;6.912;2023-09-12T07:53:53;8.60;;;6.85;;
15256;SDS011;7731;50.720;6.912;2023-09-12T07:56:23;9.95;;;7.78;;
15256;SDS011;7731;50.720;6.912;2023-09-12T07:58:56;9.50;;;8.52;;
15256;SDS011;7731;50.720;6.912;2023-09-12T08:01:27;11.05;;;8.88;;
15256;SDS011;7731;50.720;6.912;2023-09-12T08:04:00;15.35;;;9.63;;
15256;SDS011;7731;50.720;6.912;2023-09-12T08:06:30;11.32;;;8.98;;
15256;SDS011;7731;50.720;6.912;2023-09-12T08:09:20;9.98;;;8.43;;
15256;SDS011;7731;50.720;6.912;2023-09-12T08:11:51;10.75;;;8.50;;
15256;SDS011;7731;50.720;6.912;2023-09-12T08:14:24;10.50;;;9.52;;
15256;SDS011;7731;50.720;6.912;2023-09-12T08:16:55;9.38;;;8.30;;
15256;SDS011;7731;50.720;6.912;2023-09-12T08:19:29;9.77;;;8.85;;
15256;SDS011;7731;50.720;6.912;2023-09-12T08:22:02;11.00;;;9.90;;
15256;SDS011;7731;50.720;6.912;2023-09-12T08:24:33;13.25;;;9.50;;
15256;SDS011;7731;50.720;6.912;2023-09-12T08:27:07;10.77;;;9.68;;
15256;SDS011;7731;50.720;6.912;2023-09-12T08:29:38;15.00;;;12.65;;
15256;SDS011;7731;50.720;6.912;2023-09-12T08:32:11;27.80;;;18.23;;
15256;SDS011;7731;50.720;6.912;2023-09-12T08:34:45;19.23;;;14.63;;
15256;SDS011;7731;50.720;6.912;2023-09-12T08:37:15;19.27;;;14.50;;
15256;SDS011;7731;50.720;6.912;2023-09-12T08:39:46;19.52;;;15.45;;
15256;SDS011;7731;50.720;6.912;2023-09-12T08:42:16;15.98;;;14.43;;
15256;SDS011;7731;50.720;6.912;2023-09-12T08:44:47;15.85;;;14.25;;
15256;SDS011;7731;50.720;6.912;2023-09-12T08:47:17;14.65;;;13.15;;
15256;SDS011;7731;50.720;6.912;2023-09-12T08:49:56;14.50;;;12.90;;
15256;SDS011;7731;50.720;6.912;2023-09-12T08:52:27;13.35;;;11.98;;
15256;SDS011;7731;50.720;6.912;2023-09-12T08:54:58;15.55;;;13.75;;
15256;SDS011;7731;50.720;6.912;2023-09-12T08:57:28;18.20;;;14.60;;
15256;SDS011;7731;50.720;6.912;2023-09-12T09:00:06;16.92;;;15.23;;
15256;SDS011;7731;50.720;6.912;2023-09-12T09:02:41;15.20;;;13.50;;
15256;SDS011;7731;50.720;6.912;2023-09-12T09:05:15;15.98;;;14.30;;
15256;SDS011;7731;50.720;6.912;2023-09-12T09:07:49;13.70;;;12.38;;
15256;SDS011;7731;50.720;6.912;2023-09-12T09:10:22;13.50;;;12.20;;
15256;SDS011;7731;50.720;6.912;2023-09-12T09:13:12;14.15;;;12.82;;
15256;SDS011;7731;50.720;6.912;2023-09-12T09:15:44;14.82;;;13.32;;
15256;SDS011;7731;50.720;6.912;2023-09-12T09:18:15;17.65;;;14.13;;
15256;SDS011;7731;50.720;6.912;2023-09-12T09:20:48;15.18;;;11.98;;
15256;SDS011;7731;50.720;6.912;2023-09-12T09:23:18;14.98;;;13.63;;
15256;SDS011;7731;50.720;6.912;2023-09-12T09:25:51;15.98;;;14.27;;
15256;SDS011;7731;50.720;6.912;2023-09-12T09:28:22;14.73;;;13.38;;
15256;SDS011;7731;50.720;6.912;2023-09-12T09:30:53;14.45;;;12.77;;
15256;SDS011;7731;50.720;6.912;2023-09-12T09:33:23;14.38;;;12.95;;
15256;SDS011;7731;50.720;6.912;2023-09-12T09:36:01;14.50;;;13.02;;
15256;SDS011;7731;50.720;6.912;2023-09-12T09:38:34;12.10;;;11.00;;
15256;SDS011;7731;50.720;6.912;2023-09-12T09:41:06;13.88;;;12.27;;
15256;SDS011;7731;50.720;6.912;2023-09-12T09:43:36;13.10;;;11.85;;
15256;SDS011;7731;50.720;6.912;2023-09-12T09:46:08;15.57;;;14.10;;
15256;SDS011;7731;50.720;6.912;2023-09-12T09:48:49;15.02;;;13.43;;
15256;SDS011;7731;50.720;6.912;2023-09-12T09:51:23;15.13;;;13.48;;
15256;SDS011;7731;50.720;6.912;2023-09-12T09:53:54;17.35;;;14.85;;
15256;SDS011;7731;50.720;6.912;2023-09-12T09:56:25;16.17;;;14.48;;
15256;SDS011;7731;50.720;6.912;2023-09-12T09:58:56;14.55;;;13.05;;
15256;SDS011;7731;50.720;6.912;2023-09-12T10:01:27;13.32;;;11.93;;
15256;SDS011;7731;50.720;6.912;2023-09-12T10:04:00;14.90;;;13.10;;
15256;SDS011;7731;50.720;6.912;2023-09-12T10:06:34;15.75;;;14.20;;
15256;SDS011;7731;50.720;6.912;2023-09-12T10:09:09;14.65;;;12.68;;
15256;SDS011;7731;50.720;6.912;2023-09-12T10:11:42;17.27;;;13.10;;
15256;SDS011;7731;50.720;6.912;2023-09-12T10:14:18;15.57;;;12.90;;
15256;SDS011;7731;50.720;6.912;2023-09-12T10:16:51;12.98;;;11.88;;
15256;SDS011;7731;50.720;6.912;2023-09-12T10:19:35;14.05;;;12.35;;
15256;SDS011;7731;50.720;6.912;2023-09-12T10:22:16;21.95;;;12.95;;
15256;SDS011;7731;50.720;6.912;2023-09-12T10:24:53;14.57;;;13.18;;
15256;SDS011;7731;50.720;6.912;2023-09-12T10:27:27;12.90;;;11.60;;
15256;SDS011;7731;50.720;6.912;2023-09-12T10:30:01;14.13;;;12.50;;
15256;SDS011;7731;50.720;6.912;2023-09-12T10:32:33;13.82;;;11.65;;
15256;SDS011;7731;50.720;6.912;2023-09-12T10:35:06;12.93;;;11.77;;
15256;SDS011;7731;50.720;6.912;2023-09-12T10:37:41;16.88;;;15.15;;
15256;SDS011;7731;50.720;6.912;2023-09-12T10:40:18;14.73;;;13.20;;
15256;SDS011;7731;50.720;6.912;2023-09-12T10:42:50;18.50;;;12.77;;
15256;SDS011;7731;50.720;6.912;2023-09-12T10:45:23;16.65;;;12.43;;
15256;SDS011;7731;50.720;6.912;2023-09-12T10:47:54;14.40;;;10.93;;
15256;SDS011;7731;50.720;6.912;2023-09-12T10:50:24;14.00;;;12.10;;
15256;SDS011;7731;50.720;6.912;2023-09-12T10:52:58;14.48;;;13.00;;
15256;SDS011;7731;50.720;6.912;2023-09-12T10:55:40;13.40;;;12.15;;
15256;SDS011;7731;50.720;6.912;2023-09-12T10:58:11;13.38;;;11.73;;
15256;SDS011;7731;50.720;6.912;2023-09-12T11:00:41;12.20;;;10.88;;
15256;SDS011;7731;50.720;6.912;2023-09-12T11:03:47;11.95;;;10.80;;
15256;SDS011;7731;50.720;6.912;2023-09-12T11:06:20;12.80;;;11.52;;
15256;SDS011;7731;50.720;6.912;2023-09-12T11:11:54;13.13;;;11.93;;
15256;SDS011;7731;50.720;6.912;2023-09-12T11:14:28;12.45;;;11.40;;
15256;SDS011;7731;50.720;6.912;2023-09-12T11:19:52;11.90;;;10.80;;
15256;SDS011;7731;50.720;6.912;2023-09-12T11:22:25;10.75;;;9.85;;
15256;SDS011;7731;50.720;6.912;2023-09-12T11:25:04;11.75;;;10.75;;
15256;SDS011;7731;50.720;6.912;2023-09-12T11:28:01;13.45;;;11.57;;
15256;SDS011;7731;50.720;6.912;2023-09-12T11:30:33;13.13;;;11.57;;
15256;SDS011;7731;50.720;6.912;2023-09-12T11:33:04;10.43;;;9.52;;
15256;SDS011;7731;50.720;6.912;2023-09-12T11:35:41;10.55;;;9.55;;
15256;SDS011;7731;50.720;6.912;2023-09-12T11:38:12;9.90;;;9.00;;
15256;SDS011;7731;50.720;6.912;2023-09-12T11:41:00;9.48;;;8.57;;
15256;SDS011;7731;50.720;6.912;2023-09-12T11:43:30;9.57;;;8.77;;
15256;SDS011;7731;50.720;6.912;2023-09-12T11:46:06;9.68;;;8.40;;
15256;SDS011;7731;50.720;6.912;2023-09-12T11:48:39;9.93;;;9.13;;
15256;SDS011;7731;50.720;6.912;2023-09-12T11:51:11;9.90;;;8.70;;
15256;SDS011;7731;50.720;6.912;2023-09-12T11:53:59;8.20;;;7.40;;
15256;SDS011;7731;50.720;6.912;2023-09-12T11:56:33;8.77;;;7.95;;
15256;SDS011;7731;50.720;6.912;2023-09-12T11:59:03;9.18;;;8.02;;
15256;SDS011;7731;50.720;6.912;2023-09-12T12:01:37;8.88;;;7.97;;
15256;SDS011;7731;50.720;6.912;2023-09-12T12:04:08;8.68;;;7.20;;
15256;SDS011;7731;50.720;6.912;2023-09-12T12:06:39;8.68;;;7.88;;
15256;SDS011;7731;50.720;6.912;2023-09-12T12:09:10;8.85;;;7.95;;
15256;SDS011;7731;50.720;6.912;2023-09-12T12:11:43;8.27;;;7.50;;
15256;SDS011;7731;50.720;6.912;2023-09-12T12:14:14;9.27;;;8.48;;
15256;SDS011;7731;50.720;6.912;2023-09-12T12:16:46;10.07;;;7.80;;
15256;SDS011;7731;50.720;6.912;2023-09-12T12:19:19;9.50;;;6.53;;
15256;SDS011;7731;50.720;6.912;2023-09-12T12:21:50;7.15;;;6.55;;
15256;SDS011;7731;50.720;6.912;2023-09-12T12:24:20;7.80;;;6.18;;
15256;SDS011;7731;50.720;6.912;2023-09-12T12:26:53;7.75;;;6.80;;
15256;SDS011;7731;50.720;6.912;2023-09-12T12:29:34;6.53;;;5.43;;
15256;SDS011;7731;50.720;6.912;2023-09-12T12:32:06;6.72;;;6.13;;
15256;SDS011;7731;50.720;6.912;2023-09-12T12:34:40;7.18;;;6.47;;
15256;SDS011;7731;50.720;6.912;2023-09-12T12:37:31;8.38;;;6.78;;
15256;SDS011;7731;50.720;6.912;2023-09-12T12:40:02;8.65;;;6.60;;
15256;SDS011;7731;50.720;6.912;2023-09-12T12:42:43;6.97;;;6.28;;
15256;SDS011;7731;50.720;6.912;2023-09-12T12:45:21;7.07;;;5.97;;
15256;SDS011;7731;50.720;6.912;2023-09-12T12:47:57;7.75;;;5.50;;
15256;SDS011;7731;50.720;6.912;2023-09-12T12:50:29;6.45;;;5.60;;
15256;SDS011;7731;50.720;6.912;2023-09-12T12:53:05;6.72;;;6.13;;
15256;SDS011;7731;50.720;6.912;2023-09-12T12:55:35;6.70;;;5.88;;
15256;SDS011;7731;50.720;6.912;2023-09-12T12:58:09;6.50;;;5.40;;
15256;SDS011;7731;50.720;6.912;2023-09-12T13:00:40;7.22;;;5.50;;
15256;SDS011;7731;50.720;6.912;2023-09-12T13:03:10;5.45;;;4.95;;
15256;SDS011;7731;50.720;6.912;2023-09-12T13:05:42;6.63;;;5.28;;
15256;SDS011;7731;50.720;6.912;2023-09-12T13:08:14;6.05;;;5.25;;
15256;SDS011;7731;50.720;6.912;2023-09-12T13:10:44;6.22;;;4.95;;
15256;SDS011;7731;50.720;6.912;2023-09-12T13:13:17;5.35;;;4.85;;
15256;SDS011;7731;50.720;6.912;2023-09-12T13:15:48;5.90;;;4.75;;
15256;SDS011;7731;50.720;6.912;2023-09-12T13:18:27;4.70;;;4.30;;
15256;SDS011;7731;50.720;6.912;2023-09-12T13:20:57;6.07;;;5.00;;
15256;SDS011;7731;50.720;6.912;2023-09-12T13:23:28;5.45;;;4.95;;
15256;SDS011;7731;50.720;6.912;2023-09-12T13:25:59;8.27;;;4.93;;
15256;SDS011;7731;50.720;6.912;2023-09-12T13:28:32;5.80;;;5.25;;
15256;SDS011;7731;50.720;6.912;2023-09-12T13:31:03;6.07;;;5.05;;
15256;SDS011;7731;50.720;6.912;2023-09-12T13:33:33;5.70;;;5.10;;
15256;SDS011;7731;50.720;6.912;2023-09-12T13:36:04;7.63;;;5.32;;
15256;SDS011;7731;50.720;6.912;2023-09-12T13:38:35;6.13;;;5.30;;
15256;SDS011;7731;50.720;6.912;2023-09-12T13:41:06;6.60;;;5.85;;
15256;SDS011;7731;50.720;6.912;2023-09-12T13:43:41;6.22;;;5.63;;
15256;SDS011;7731;50.720;6.912;2023-09-12T13:46:12;6.25;;;5.47;;
15256;SDS011;7731;50.720;6.912;2023-09-12T13:48:43;7.85;;;5.60;;
15256;SDS011;7731;50.720;6.912;2023-09-12T13:51:18;8.10;;;5.50;;
15256;SDS011;7731;50.720;6.912;2023-09-12T13:53:49;6.25;;;5.65;;
15256;SDS011;7731;50.720;6.912;2023-09-12T13:56:19;7.40;;;6.05;;
15256;SDS011;7731;50.720;6.912;2023-09-12T13:58:58;8.05;;;5.43;;
15256;SDS011;7731;50.720;6.912;2023-09-12T14:01:39;7.00;;;5.78;;
15256;SDS011;7731;50.720;6.912;2023-09-12T14:04:09;6.60;;;5.82;;
15256;SDS011;7731;50.720;6.912;2023-09-12T14:06:40;6.43;;;5.78;;
15256;SDS011;7731;50.720;6.912;2023-09-12T14:09:11;7.65;;;6.03;;
15256;SDS011;7731;50.720;6.912;2023-09-12T14:11:51;6.90;;;5.72;;
15256;SDS011;7731;50.720;6.912;2023-09-12T14:14:25;7.63;;;5.97;;
15256;SDS011;7731;50.720;6.912;2023-09-12T14:16:56;6.47;;;5.78;;
15256;SDS011;7731;50.720;6.912;2023-09-12T14:19:28;6.72;;;5.80;;
15256;SDS011;7731;50.720;6.912;2023-09-12T14:21:58;6.82;;;5.63;;
15256;SDS011;7731;50.720;6.912;2023-09-12T14:24:30;7.03;;;5.95;;
15256;SDS011;7731;50.720;6.912;2023-09-12T14:27:01;6.70;;;6.10;;
15256;SDS011;7731;50.720;6.912;2023-09-12T14:29:48;6.55;;;5.75;;
15256;SDS011;7731;50.720;6.912;2023-09-12T14:32:18;6.88;;;6.13;;
15256;SDS011;7731;50.720;6.912;2023-09-12T14:34:49;7.07;;;6.47;;
15256;SDS011;7731;50.720;6.912;2023-09-12T14:37:19;9.55;;;6.80;;
15256;SDS011;7731;50.720;6.912;2023-09-12T14:39:56;7.53;;;6.70;;
15256;SDS011;7731;50.720;6.912;2023-09-12T14:42:26;8.75;;;6.90;;
15256;SDS011;7731;50.720;6.912;2023-09-12T14:45:02;8.45;;;7.10;;
15256;SDS011;7731;50.720;6.912;2023-09-12T14:47:35;6.63;;;6.00;;
15256;SDS011;7731;50.720;6.912;2023-09-12T14:50:06;6.57;;;5.85;;
15256;SDS011;7731;50.720;6.912;2023-09-12T14:52:37;7.40;;;5.43;;
15256;SDS011;7731;50.720;6.912;2023-09-12T14:55:09;7.00;;;6.00;;
15256;SDS011;7731;50.720;6.912;2023-09-12T14:57:41;8.13;;;5.70;;
15256;SDS011;7731;50.720;6.912;2023-09-12T15:00:14;6.05;;;5.15;;
15256;SDS011;7731;50.720;6.912;2023-09-12T15:02:45;7.50;;;5.68;;
15256;SDS011;7731;50.720;6.912;2023-09-12T15:05:15;6.22;;;5.63;;
15256;SDS011;7731;50.720;6.912;2023-09-12T15:07:46;6.10;;;5.60;;
15256;SDS011;7731;50.720;6.912;2023-09-12T15:10:25;7.45;;;5.38;;
15256;SDS011;7731;50.720;6.912;2023-09-12T15:12:56;6.20;;;5.60;;
15256;SDS011;7731;50.720;6.912;2023-09-12T15:15:32;5.97;;;5.05;;
15256;SDS011;7731;50.720;6.912;2023-09-12T15:18:03;7.53;;;5.75;;
15256;SDS011;7731;50.720;6.912;2023-09-12T15:20:34;5.55;;;5.05;;
15256;SDS011;7731;50.720;6.912;2023-09-12T15:23:06;6.18;;;5.57;;
15256;SDS011;7731;50.720;6.912;2023-09-12T15:25:36;5.25;;;4.80;;
15256;SDS011;7731;50.720;6.912;2023-09-12T15:28:06;6.15;;;5.55;;